sensor_id;sensor_type;location;lat;lon;timestamp;pressure;altitude;pressure_sealevel;temperature;humidity
61113;BME280;47184;57.998;56.184;2023-03-20T00:01:56;100984.25;;;0.79;44.89
61113;BME280;47184;57.998;56.184;2023-03-20T00:04:22;100965.34;;;0.58;44.87
61113;BME280;47184;57.998;56.184;2023-03-20T00:06:48;100989.56;;;0.59;45.80
61113;BME280;47184;57.998;56.184;2023-03-20T00:09:14;100988.19;;;0.69;45.70
61113;BME280;47184;57.998;56.184;2023-03-20T00:11:46;100990.13;;;0.65;46.08
61113;BME280;47184;57.998;56.184;2023-03-20T00:14:15;100981.63;;;0.62;45.99
61113;BME280;47184;57.998;56.184;2023-03-20T00:16:43;100973.25;;;0.74;45.49
61113;BME280;47184;57.998;56.184;2023-03-20T00:19:30;100976.81;;;0.71;46.32
61113;BME280;47184;57.998;56.184;2023-03-20T00:21:56;100978.22;;;0.79;45.71
61113;BME280;47184;57.998;56.184;2023-03-20T00:24:23;100976.81;;;0.71;46.10
61113;BME280;47184;57.998;56.184;2023-03-20T00:26:51;100977.66;;;0.72;46.31
61113;BME280;47184;57.998;56.184;2023-03-20T00:29:23;100978.66;;;0.69;46.84
61113;BME280;47184;57.998;56.184;2023-03-20T00:31:51;100974.44;;;0.67;46.67
61113;BME280;47184;57.998;56.184;2023-03-20T00:34:19;100977.03;;;0.67;46.97
61113;BME280;47184;57.998;56.184;2023-03-20T00:36:46;100972.69;;;0.67;47.58
61113;BME280;47184;57.998;56.184;2023-03-20T00:39:13;100959.06;;;0.62;47.13
61113;BME280;47184;57.998;56.184;2023-03-20T00:41:47;100958.16;;;0.63;47.84
61113;BME280;47184;57.998;56.184;2023-03-20T00:44:24;100969.88;;;0.72;47.60
61113;BME280;47184;57.998;56.184;2023-03-20T00:46:56;100960.47;;;0.69;47.46
61113;BME280;47184;57.998;56.184;2023-03-20T00:49:28;100966.50;;;0.70;47.62
61113;BME280;47184;57.998;56.184;2023-03-20T00:51:55;100954.22;;;0.73;47.83
61113;BME280;47184;57.998;56.184;2023-03-20T00:54:24;100962.84;;;0.74;47.70
61113;BME280;47184;57.998;56.184;2023-03-20T00:59:36;100956.81;;;0.73;48.15
61113;BME280;47184;57.998;56.184;2023-03-20T01:02:03;100951.81;;;0.69;48.08
61113;BME280;47184;57.998;56.184;2023-03-20T01:04:40;100943.72;;;0.58;48.79
61113;BME280;47184;57.998;56.184;2023-03-20T01:07:11;100944.94;;;0.68;48.39
61113;BME280;47184;57.998;56.184;2023-03-20T01:09:38;100948.31;;;0.70;48.59
61113;BME280;47184;57.998;56.184;2023-03-20T01:12:05;100941.81;;;0.61;48.93
61113;BME280;47184;57.998;56.184;2023-03-20T01:14:33;100935.13;;;0.56;48.84
61113;BME280;47184;57.998;56.184;2023-03-20T01:16:59;100943.53;;;0.61;49.40
61113;BME280;47184;57.998;56.184;2023-03-20T01:19:25;100939.34;;;0.58;49.68
61113;BME280;47184;57.998;56.184;2023-03-20T01:21:51;100952.81;;;0.66;49.33
61113;BME280;47184;57.998;56.184;2023-03-20T01:24:18;100957.94;;;0.68;49.27
61113;BME280;47184;57.998;56.184;2023-03-20T01:26:44;100949.53;;;0.63;49.66
61113;BME280;47184;57.998;56.184;2023-03-20T01:31:43;100930.78;;;0.56;49.58
61113;BME280;47184;57.998;56.184;2023-03-20T01:34:10;100955.69;;;0.60;50.21
61113;BME280;47184;57.998;56.184;2023-03-20T01:36:37;100935.06;;;0.57;50.11
61113;BME280;47184;57.998;56.184;2023-03-20T01:39:04;100930.84;;;0.55;50.24
61113;BME280;47184;57.998;56.184;2023-03-20T01:41:31;100941.38;;;0.52;51.02
61113;BME280;47184;57.998;56.184;2023-03-20T01:44:00;100930.25;;;0.49;50.84
61113;BME280;47184;57.998;56.184;2023-03-20T01:46:31;100938.75;;;0.53;50.86
61113;BME280;47184;57.998;56.184;2023-03-20T01:51:45;100905.47;;;0.23;51.46
61113;BME280;47184;57.998;56.184;2023-03-20T01:54:20;100941.38;;;0.52;51.69
61113;BME280;47184;57.998;56.184;2023-03-20T01:57:17;100934.47;;;0.33;52.27
61113;BME280;47184;57.998;56.184;2023-03-20T01:59:51;100946.09;;;0.43;52.30
61113;BME280;47184;57.998;56.184;2023-03-20T02:02:25;100932.97;;;0.46;52.02
61113;BME280;47184;57.998;56.184;2023-03-20T02:05:00;100928.97;;;0.39;52.58
61113;BME280;47184;57.998;56.184;2023-03-20T02:07:30;100919.28;;;0.43;52.24
61113;BME280;47184;57.998;56.184;2023-03-20T02:10:09;100932.16;;;0.46;52.72
61113;BME280;47184;57.998;56.184;2023-03-20T02:12:52;100935.66;;;0.45;52.46
61113;BME280;47184;57.998;56.184;2023-03-20T02:15:29;100927.38;;;0.37;52.85
61113;BME280;47184;57.998;56.184;2023-03-20T02:18:13;100927.44;;;0.35;53.60
61113;BME280;47184;57.998;56.184;2023-03-20T02:21:18;100933.22;;;0.23;53.97
61113;BME280;47184;57.998;56.184;2023-03-20T02:23:59;100927.00;;;0.44;53.29
61113;BME280;47184;57.998;56.184;2023-03-20T02:37:55;100913.34;;;0.41;53.48
61113;BME280;47184;57.998;56.184;2023-03-20T02:40:43;100913.34;;;0.41;53.99
61113;BME280;47184;57.998;56.184;2023-03-20T02:43:24;100920.13;;;0.43;54.26
61113;BME280;47184;57.998;56.184;2023-03-20T02:54:41;100925.19;;;0.46;54.69
61113;BME280;47184;57.998;56.184;2023-03-20T02:57:20;100917.88;;;0.55;54.32
61113;BME280;47184;57.998;56.184;2023-03-20T02:59:55;100921.28;;;0.55;54.79
61113;BME280;47184;57.998;56.184;2023-03-20T03:02:33;100920.97;;;0.44;55.29
61113;BME280;47184;57.998;56.184;2023-03-20T03:05:05;100929.09;;;0.55;55.45
61113;BME280;47184;57.998;56.184;2023-03-20T03:07:34;100878.66;;;0.42;55.07
61113;BME280;47184;57.998;56.184;2023-03-20T03:10:11;100924.13;;;0.68;55.16
61113;BME280;47184;57.998;56.184;2023-03-20T03:12:41;100927.94;;;0.61;55.80
61113;BME280;47184;57.998;56.184;2023-03-20T03:15:29;100934.47;;;0.69;55.58
61113;BME280;47184;57.998;56.184;2023-03-20T03:17:57;100913.22;;;0.61;55.64
61113;BME280;47184;57.998;56.184;2023-03-20T03:22:53;100884.81;;;0.39;55.75
61113;BME280;47184;57.998;56.184;2023-03-20T03:25:24;100937.91;;;0.70;56.44
61113;BME280;47184;57.998;56.184;2023-03-20T03:28:00;100935.31;;;0.70;56.18
61113;BME280;47184;57.998;56.184;2023-03-20T03:30:30;100934.69;;;0.65;56.62
61113;BME280;47184;57.998;56.184;2023-03-20T03:33:19;100937.75;;;0.73;56.52
61113;BME280;47184;57.998;56.184;2023-03-20T03:35:48;100909.56;;;0.65;56.29
61113;BME280;47184;57.998;56.184;2023-03-20T03:41:41;100943.13;;;0.87;56.55
61113;BME280;47184;57.998;56.184;2023-03-20T03:47:18;100904.81;;;0.73;56.01
61113;BME280;47184;57.998;56.184;2023-03-20T03:49:52;100935.19;;;0.90;56.66
61113;BME280;47184;57.998;56.184;2023-03-20T03:52:22;100940.47;;;1.06;56.20
61113;BME280;47184;57.998;56.184;2023-03-20T03:54:54;100936.63;;;1.13;56.38
61113;BME280;47184;57.998;56.184;2023-03-20T03:57:58;100933.34;;;0.92;56.86
61113;BME280;47184;57.998;56.184;2023-03-20T04:00:26;100894.44;;;0.73;56.77
61113;BME280;47184;57.998;56.184;2023-03-20T04:02:55;100928.59;;;1.01;56.75
61113;BME280;47184;57.998;56.184;2023-03-20T04:05:24;100922.94;;;0.92;57.71
61113;BME280;47184;57.998;56.184;2023-03-20T04:07:54;100927.66;;;1.02;57.03
61113;BME280;47184;57.998;56.184;2023-03-20T04:10:21;100927.84;;;0.98;57.04
61113;BME280;47184;57.998;56.184;2023-03-20T04:12:47;100929.13;;;1.07;56.66
61113;BME280;47184;57.998;56.184;2023-03-20T04:15:14;100925.22;;;1.16;56.79
61113;BME280;47184;57.998;56.184;2023-03-20T04:17:41;100926.50;;;1.24;56.49
61113;BME280;47184;57.998;56.184;2023-03-20T04:20:10;100919.09;;;1.17;56.65
61113;BME280;47184;57.998;56.184;2023-03-20T04:22:38;100928.41;;;1.38;56.13
61113;BME280;47184;57.998;56.184;2023-03-20T04:25:14;100922.44;;;1.36;56.58
61113;BME280;47184;57.998;56.184;2023-03-20T04:27:40;100910.38;;;1.35;56.31
61113;BME280;47184;57.998;56.184;2023-03-20T04:30:16;100919.59;;;1.41;56.25
61113;BME280;47184;57.998;56.184;2023-03-20T04:33:02;100895.97;;;1.28;56.48
61113;BME280;47184;57.998;56.184;2023-03-20T04:35:47;100915.03;;;1.62;56.06
61113;BME280;47184;57.998;56.184;2023-03-20T04:38:16;100911.69;;;1.60;56.07
61113;BME280;47184;57.998;56.184;2023-03-20T04:40:44;100928.84;;;1.80;55.68
61113;BME280;47184;57.998;56.184;2023-03-20T04:43:12;100918.88;;;1.88;55.50
61113;BME280;47184;57.998;56.184;2023-03-20T04:45:38;100893.06;;;1.67;55.41
61113;BME280;47184;57.998;56.184;2023-03-20T04:48:08;100915.16;;;1.76;55.48
61113;BME280;47184;57.998;56.184;2023-03-20T04:50:35;100920.53;;;1.89;55.24
61113;BME280;47184;57.998;56.184;2023-03-20T04:53:02;100873.31;;;1.63;55.00
61113;BME280;47184;57.998;56.184;2023-03-20T04:55:29;100862.31;;;1.74;55.13
61113;BME280;47184;57.998;56.184;2023-03-20T04:57:55;100918.44;;;1.95;54.95
61113;BME280;47184;57.998;56.184;2023-03-20T05:00:22;100910.19;;;2.03;54.25
61113;BME280;47184;57.998;56.184;2023-03-20T05:02:49;100887.00;;;1.98;54.55
61113;BME280;47184;57.998;56.184;2023-03-20T05:05:16;100895.41;;;2.04;54.71
61113;BME280;47184;57.998;56.184;2023-03-20T05:07:43;100897.41;;;1.83;55.22
61113;BME280;47184;57.998;56.184;2023-03-20T05:10:14;100892.59;;;2.08;54.54
61113;BME280;47184;57.998;56.184;2023-03-20T05:12:50;100882.63;;;2.15;54.52
61113;BME280;47184;57.998;56.184;2023-03-20T05:15:25;100877.69;;;2.26;54.09
61113;BME280;47184;57.998;56.184;2023-03-20T05:18:18;100875.69;;;2.61;53.56
61113;BME280;47184;57.998;56.184;2023-03-20T05:21:08;100873.22;;;2.88;53.27
61113;BME280;47184;57.998;56.184;2023-03-20T05:23:53;100883.31;;;2.94;52.46
61113;BME280;47184;57.998;56.184;2023-03-20T05:26:35;100884.03;;;2.82;52.43
61113;BME280;47184;57.998;56.184;2023-03-20T05:29:19;100867.78;;;2.77;52.36
61113;BME280;47184;57.998;56.184;2023-03-20T05:32:15;100886.81;;;2.79;52.09
61113;BME280;47184;57.998;56.184;2023-03-20T05:34:59;100880.59;;;2.82;51.71
61113;BME280;47184;57.998;56.184;2023-03-20T05:37:46;100855.28;;;2.54;51.92
61113;BME280;47184;57.998;56.184;2023-03-20T05:40:26;100885.53;;;2.86;51.33
61113;BME280;47184;57.998;56.184;2023-03-20T05:43:11;100876.59;;;2.90;50.72
61113;BME280;47184;57.998;56.184;2023-03-20T05:46:00;100879.22;;;3.05;50.79
61113;BME280;47184;57.998;56.184;2023-03-20T05:48:43;100877.66;;;2.72;50.73
61113;BME280;47184;57.998;56.184;2023-03-20T05:51:09;100864.41;;;2.61;50.56
61113;BME280;47184;57.998;56.184;2023-03-20T05:53:56;100864.06;;;2.67;50.83
61113;BME280;47184;57.998;56.184;2023-03-20T05:56:40;100870.84;;;3.00;50.47
61113;BME280;47184;57.998;56.184;2023-03-20T05:59:24;100873.81;;;3.08;50.23
61113;BME280;47184;57.998;56.184;2023-03-20T06:02:09;100866.28;;;3.03;49.94
61113;BME280;47184;57.998;56.184;2023-03-20T06:04:39;100846.41;;;3.01;50.14
61113;BME280;47184;57.998;56.184;2023-03-20T06:07:19;100855.94;;;3.30;50.05
61113;BME280;47184;57.998;56.184;2023-03-20T06:09:55;100852.47;;;3.58;49.40
61113;BME280;47184;57.998;56.184;2023-03-20T06:12:21;100832.34;;;3.46;49.01
61113;BME280;47184;57.998;56.184;2023-03-20T06:14:47;100872.16;;;3.64;49.08
61113;BME280;47184;57.998;56.184;2023-03-20T06:17:13;100857.44;;;3.34;48.76
61113;BME280;47184;57.998;56.184;2023-03-20T06:19:41;100869.47;;;3.37;49.27
61113;BME280;47184;57.998;56.184;2023-03-20T06:22:07;100845.69;;;3.27;49.17
61113;BME280;47184;57.998;56.184;2023-03-20T06:24:33;100874.13;;;3.32;49.10
61113;BME280;47184;57.998;56.184;2023-03-20T06:27:00;100875.91;;;3.31;48.96
61113;BME280;47184;57.998;56.184;2023-03-20T06:29:27;100863.50;;;3.35;48.87
61113;BME280;47184;57.998;56.184;2023-03-20T06:32:06;100868.81;;;3.33;49.20
61113;BME280;47184;57.998;56.184;2023-03-20T06:34:32;100824.06;;;2.96;49.08
61113;BME280;47184;57.998;56.184;2023-03-20T06:36:58;100871.88;;;3.26;48.99
61113;BME280;47184;57.998;56.184;2023-03-20T06:39:24;100850.16;;;3.25;48.69
61113;BME280;47184;57.998;56.184;2023-03-20T06:41:53;100868.44;;;3.25;48.67
61113;BME280;47184;57.998;56.184;2023-03-20T06:44:22;100875.69;;;3.34;48.76
61113;BME280;47184;57.998;56.184;2023-03-20T06:47:12;100844.28;;;3.21;48.45
61113;BME280;47184;57.998;56.184;2023-03-20T06:49:40;100837.69;;;3.16;48.91
61113;BME280;47184;57.998;56.184;2023-03-20T06:52:12;100868.16;;;3.58;48.46
61113;BME280;47184;57.998;56.184;2023-03-20T06:54:39;100862.63;;;3.77;48.15
61113;BME280;47184;57.998;56.184;2023-03-20T06:57:06;100866.22;;;4.30;47.40
61113;BME280;47184;57.998;56.184;2023-03-20T06:59:32;100822.16;;;4.24;47.36
61113;BME280;47184;57.998;56.184;2023-03-20T07:02:00;100853.31;;;4.41;47.44
61113;BME280;47184;57.998;56.184;2023-03-20T07:04:27;100867.72;;;4.47;47.26
61113;BME280;47184;57.998;56.184;2023-03-20T07:06:56;100860.88;;;4.32;47.00
61113;BME280;47184;57.998;56.184;2023-03-20T07:09:24;100862.81;;;4.42;46.85
61113;BME280;47184;57.998;56.184;2023-03-20T07:11:51;100858.13;;;4.47;47.19
61113;BME280;47184;57.998;56.184;2023-03-20T07:14:19;100842.59;;;4.84;46.57
61113;BME280;47184;57.998;56.184;2023-03-20T07:16:53;100850.03;;;4.90;45.95
61113;BME280;47184;57.998;56.184;2023-03-20T07:19:21;100850.69;;;4.94;45.35
61113;BME280;47184;57.998;56.184;2023-03-20T07:21:59;100848.06;;;5.19;45.36
61113;BME280;47184;57.998;56.184;2023-03-20T07:24:31;100800.97;;;5.56;44.73
61113;BME280;47184;57.998;56.184;2023-03-20T07:26:58;100840.91;;;6.44;43.55
61113;BME280;47184;57.998;56.184;2023-03-20T07:29:26;100843.31;;;6.48;42.39
61113;BME280;47184;57.998;56.184;2023-03-20T07:31:53;100830.94;;;6.61;41.06
61113;BME280;47184;57.998;56.184;2023-03-20T07:34:27;100807.50;;;6.82;41.08
61113;BME280;47184;57.998;56.184;2023-03-20T07:36:55;100844.09;;;7.52;40.26
61113;BME280;47184;57.998;56.184;2023-03-20T07:39:21;100847.34;;;7.99;39.37
61113;BME280;47184;57.998;56.184;2023-03-20T07:42:08;100826.31;;;7.99;38.51
61113;BME280;47184;57.998;56.184;2023-03-20T07:44:43;100841.78;;;8.25;37.98
61113;BME280;47184;57.998;56.184;2023-03-20T07:47:10;100837.22;;;8.38;37.57
61113;BME280;47184;57.998;56.184;2023-03-20T07:49:36;100831.09;;;8.90;37.08
61113;BME280;47184;57.998;56.184;2023-03-20T07:52:03;100822.84;;;9.76;36.12
61113;BME280;47184;57.998;56.184;2023-03-20T07:54:30;100811.50;;;10.72;35.60
61113;BME280;47184;57.998;56.184;2023-03-20T07:56:56;100821.31;;;11.46;33.49
61113;BME280;47184;57.998;56.184;2023-03-20T07:59:22;100833.06;;;10.87;33.09
61113;BME280;47184;57.998;56.184;2023-03-20T08:01:48;100807.78;;;10.36;34.18
61113;BME280;47184;57.998;56.184;2023-03-20T08:04:14;100817.78;;;10.13;34.22
61113;BME280;47184;57.998;56.184;2023-03-20T08:06:44;100819.72;;;10.21;34.99
61113;BME280;47184;57.998;56.184;2023-03-20T08:09:10;100807.22;;;10.23;34.65
61113;BME280;47184;57.998;56.184;2023-03-20T08:11:36;100814.03;;;10.64;34.23
61113;BME280;47184;57.998;56.184;2023-03-20T08:14:02;100795.25;;;11.14;33.90
61113;BME280;47184;57.998;56.184;2023-03-20T08:16:28;100799.28;;;11.83;32.54
61113;BME280;47184;57.998;56.184;2023-03-20T08:18:55;100814.13;;;12.11;32.00
61113;BME280;47184;57.998;56.184;2023-03-20T08:21:27;100799.59;;;11.70;31.67
61113;BME280;47184;57.998;56.184;2023-03-20T08:23:53;100812.53;;;10.61;32.25
61113;BME280;47184;57.998;56.184;2023-03-20T08:26:21;100801.00;;;10.43;32.52
61113;BME280;47184;57.998;56.184;2023-03-20T08:28:47;100785.53;;;10.19;33.35
61113;BME280;47184;57.998;56.184;2023-03-20T08:31:14;100794.81;;;11.28;32.48
61113;BME280;47184;57.998;56.184;2023-03-20T08:33:43;100799.25;;;12.98;30.95
61113;BME280;47184;57.998;56.184;2023-03-20T08:36:10;100791.25;;;14.33;29.42
61113;BME280;47184;57.998;56.184;2023-03-20T08:38:36;100787.41;;;14.85;28.73
61113;BME280;47184;57.998;56.184;2023-03-20T08:41:02;100792.66;;;15.65;27.82
61113;BME280;47184;57.998;56.184;2023-03-20T08:43:28;100785.81;;;16.40;26.84
61113;BME280;47184;57.998;56.184;2023-03-20T08:45:55;100792.59;;;16.04;26.52
61113;BME280;47184;57.998;56.184;2023-03-20T08:48:21;100771.44;;;15.41;26.47
61113;BME280;47184;57.998;56.184;2023-03-20T08:50:47;100782.88;;;14.94;26.60
61113;BME280;47184;57.998;56.184;2023-03-20T08:53:13;100784.63;;;14.54;27.06
61113;BME280;47184;57.998;56.184;2023-03-20T08:55:39;100763.34;;;14.13;27.17
61113;BME280;47184;57.998;56.184;2023-03-20T08:58:06;100778.38;;;13.72;27.64
61113;BME280;47184;57.998;56.184;2023-03-20T09:00:32;100766.38;;;13.51;28.32
61113;BME280;47184;57.998;56.184;2023-03-20T09:02:58;100783.25;;;14.09;27.88
61113;BME280;47184;57.998;56.184;2023-03-20T09:05:24;100775.56;;;13.23;28.22
61113;BME280;47184;57.998;56.184;2023-03-20T09:07:50;100748.63;;;12.83;28.50
61113;BME280;47184;57.998;56.184;2023-03-20T09:10:16;100767.53;;;12.01;29.58
61113;BME280;47184;57.998;56.184;2023-03-20T09:12:42;100759.00;;;11.61;30.51
61113;BME280;47184;57.998;56.184;2023-03-20T09:15:09;100764.50;;;11.50;30.06
61113;BME280;47184;57.998;56.184;2023-03-20T09:17:35;100763.38;;;11.71;30.87
61113;BME280;47184;57.998;56.184;2023-03-20T09:20:02;100764.72;;;12.38;29.68
61113;BME280;47184;57.998;56.184;2023-03-20T09:22:29;100764.19;;;13.12;29.36
61113;BME280;47184;57.998;56.184;2023-03-20T09:24:55;100742.75;;;13.32;28.52
61113;BME280;47184;57.998;56.184;2023-03-20T09:27:22;100745.97;;;13.18;28.64
61113;BME280;47184;57.998;56.184;2023-03-20T09:29:48;100750.13;;;13.62;28.83
61113;BME280;47184;57.998;56.184;2023-03-20T09:32:16;100757.53;;;14.18;28.75
61113;BME280;47184;57.998;56.184;2023-03-20T09:34:42;100785.78;;;14.68;27.74
61113;BME280;47184;57.998;56.184;2023-03-20T09:37:08;100794.06;;;13.49;28.32
61113;BME280;47184;57.998;56.184;2023-03-20T09:39:35;100765.13;;;12.77;29.36
61113;BME280;47184;57.998;56.184;2023-03-20T09:42:23;100770.06;;;12.90;29.73
61113;BME280;47184;57.998;56.184;2023-03-20T09:44:56;100769.97;;;13.08;29.40
61113;BME280;47184;57.998;56.184;2023-03-20T09:47:31;100767.47;;;13.99;28.79
61113;BME280;47184;57.998;56.184;2023-03-20T09:50:27;100766.81;;;14.87;27.79
61113;BME280;47184;57.998;56.184;2023-03-20T09:53:04;100764.63;;;15.77;27.26
61113;BME280;47184;57.998;56.184;2023-03-20T09:55:39;100771.03;;;16.14;26.17
61113;BME280;47184;57.998;56.184;2023-03-20T09:58:15;100775.81;;;15.25;26.66
61113;BME280;47184;57.998;56.184;2023-03-20T10:00:45;100769.00;;;14.59;27.38
61113;BME280;47184;57.998;56.184;2023-03-20T10:03:26;100759.09;;;15.08;27.69
61113;BME280;47184;57.998;56.184;2023-03-20T10:05:57;100767.78;;;14.94;27.23
61113;BME280;47184;57.998;56.184;2023-03-20T10:08:35;100768.16;;;14.09;27.89
61113;BME280;47184;57.998;56.184;2023-03-20T10:19:51;100772.66;;;10.26;32.85
61113;BME280;47184;57.998;56.184;2023-03-20T10:22:22;100772.75;;;9.76;34.15
61113;BME280;47184;57.998;56.184;2023-03-20T10:27:50;100773.63;;;8.54;36.03
61113;BME280;47184;57.998;56.184;2023-03-20T10:33:44;100778.09;;;7.66;37.99
61113;BME280;47184;57.998;56.184;2023-03-20T10:36:38;100776.34;;;7.56;38.67
61113;BME280;47184;57.998;56.184;2023-03-20T10:41:59;100772.66;;;7.47;38.77
61113;BME280;47184;57.998;56.184;2023-03-20T10:44:40;100778.38;;;7.30;39.75
61113;BME280;47184;57.998;56.184;2023-03-20T10:47:12;100762.25;;;6.89;40.37
61113;BME280;47184;57.998;56.184;2023-03-20T10:49:48;100766.78;;;6.76;41.29
61113;BME280;47184;57.998;56.184;2023-03-20T10:52:21;100751.69;;;6.44;42.46
61113;BME280;47184;57.998;56.184;2023-03-20T10:54:57;100771.94;;;6.78;41.67
61113;BME280;47184;57.998;56.184;2023-03-20T10:57:27;100768.47;;;6.77;41.84
61113;BME280;47184;57.998;56.184;2023-03-20T10:59:57;100764.81;;;7.02;41.40
61113;BME280;47184;57.998;56.184;2023-03-20T11:02:28;100770.63;;;7.17;41.50
61113;BME280;47184;57.998;56.184;2023-03-20T11:04:56;100748.06;;;6.69;43.32
61113;BME280;47184;57.998;56.184;2023-03-20T11:07:33;100762.22;;;6.56;43.75
61113;BME280;47184;57.998;56.184;2023-03-20T11:12:37;100772.56;;;5.87;46.90
61113;BME280;47184;57.998;56.184;2023-03-20T11:15:25;100755.19;;;5.49;48.19
61113;BME280;47184;57.998;56.184;2023-03-20T11:17:56;100766.09;;;5.56;48.09
61113;BME280;47184;57.998;56.184;2023-03-20T11:20:23;100764.97;;;5.47;48.48
61113;BME280;47184;57.998;56.184;2023-03-20T11:22:55;100767.06;;;5.29;48.71
61113;BME280;47184;57.998;56.184;2023-03-20T11:25:48;100773.56;;;5.36;49.50
61113;BME280;47184;57.998;56.184;2023-03-20T11:28:33;100780.63;;;5.60;48.50
61113;BME280;47184;57.998;56.184;2023-03-20T11:31:20;100782.56;;;5.45;49.68
61113;BME280;47184;57.998;56.184;2023-03-20T11:36:55;100765.19;;;5.31;50.17
61113;BME280;47184;57.998;56.184;2023-03-20T11:39:23;100763.44;;;5.19;50.51
61113;BME280;47184;57.998;56.184;2023-03-20T11:41:53;100757.94;;;5.47;49.86
61113;BME280;47184;57.998;56.184;2023-03-20T11:44:24;100754.78;;;5.42;50.00
61113;BME280;47184;57.998;56.184;2023-03-20T11:47:13;100752.44;;;5.27;50.29
61113;BME280;47184;57.998;56.184;2023-03-20T11:49:57;100750.69;;;4.89;51.51
61113;BME280;47184;57.998;56.184;2023-03-20T11:52:31;100743.97;;;4.97;52.05
61113;BME280;47184;57.998;56.184;2023-03-20T11:55:04;100751.53;;;4.77;52.25
61113;BME280;47184;57.998;56.184;2023-03-20T11:57:38;100747.88;;;4.66;52.68
61113;BME280;47184;57.998;56.184;2023-03-20T12:00:06;100737.22;;;4.69;52.81
61113;BME280;47184;57.998;56.184;2023-03-20T12:02:42;100745.38;;;4.78;53.15
61113;BME280;47184;57.998;56.184;2023-03-20T12:05:31;100741.31;;;4.74;52.80
61113;BME280;47184;57.998;56.184;2023-03-20T12:08:14;100742.81;;;5.02;51.90
61113;BME280;47184;57.998;56.184;2023-03-20T12:10:45;100737.06;;;4.96;52.75
61113;BME280;47184;57.998;56.184;2023-03-20T12:13:15;100737.06;;;4.96;52.84
61113;BME280;47184;57.998;56.184;2023-03-20T12:15:46;100738.53;;;5.01;52.76
61113;BME280;47184;57.998;56.184;2023-03-20T12:21:10;100737.41;;;4.79;52.91
61113;BME280;47184;57.998;56.184;2023-03-20T12:24:09;100714.28;;;4.47;53.69
61113;BME280;47184;57.998;56.184;2023-03-20T12:29:47;100724.63;;;4.36;54.51
61113;BME280;47184;57.998;56.184;2023-03-20T12:32:55;100722.69;;;4.00;55.69
61113;BME280;47184;57.998;56.184;2023-03-20T12:35:30;100690.38;;;3.88;55.16
61113;BME280;47184;57.998;56.184;2023-03-20T12:37:57;100710.81;;;4.09;54.88
61113;BME280;47184;57.998;56.184;2023-03-20T12:40:41;100716.44;;;4.15;54.81
61113;BME280;47184;57.998;56.184;2023-03-20T12:43:24;100683.88;;;3.81;55.21
61113;BME280;47184;57.998;56.184;2023-03-20T12:48:43;100711.34;;;3.87;55.18
61113;BME280;47184;57.998;56.184;2023-03-20T13:08:25;100672.72;;;3.52;56.67
61113;BME280;47184;57.998;56.184;2023-03-20T13:11:09;100678.56;;;3.56;56.27
61113;BME280;47184;57.998;56.184;2023-03-20T13:13:48;100682.47;;;3.36;57.05
61113;BME280;47184;57.998;56.184;2023-03-20T13:19:50;100675.31;;;3.25;57.68
61113;BME280;47184;57.998;56.184;2023-03-20T13:24:33;100670.31;;;2.93;59.13
61113;BME280;47184;57.998;56.184;2023-03-20T13:35:57;100657.41;;;2.63;60.49
61113;BME280;47184;57.998;56.184;2023-03-20T13:38:35;100673.34;;;2.59;60.86
61113;BME280;47184;57.998;56.184;2023-03-20T13:41:03;100672.50;;;2.58;61.15
61113;BME280;47184;57.998;56.184;2023-03-20T13:43:35;100674.56;;;2.53;61.58
61113;BME280;47184;57.998;56.184;2023-03-20T13:46:06;100669.50;;;2.36;62.29
61113;BME280;47184;57.998;56.184;2023-03-20T13:48:39;100649.88;;;2.30;62.42
61113;BME280;47184;57.998;56.184;2023-03-20T13:54:14;100651.50;;;2.03;63.66
61113;BME280;47184;57.998;56.184;2023-03-20T13:56:56;100656.47;;;2.21;63.19
61113;BME280;47184;57.998;56.184;2023-03-20T14:04:52;100654.38;;;1.98;64.25
61113;BME280;47184;57.998;56.184;2023-03-20T14:07:32;100662.59;;;2.06;63.77
61113;BME280;47184;57.998;56.184;2023-03-20T14:13:05;100667.34;;;2.14;64.10
61113;BME280;47184;57.998;56.184;2023-03-20T14:15:34;100658.31;;;2.19;63.57
61113;BME280;47184;57.998;56.184;2023-03-20T14:18:07;100668.28;;;2.13;63.40
61113;BME280;47184;57.998;56.184;2023-03-20T14:20:39;100653.75;;;2.09;63.78
61113;BME280;47184;57.998;56.184;2023-03-20T14:23:17;100666.19;;;2.04;64.08
61113;BME280;47184;57.998;56.184;2023-03-20T14:25:46;100659.69;;;1.96;64.02
61113;BME280;47184;57.998;56.184;2023-03-20T14:30:47;100628.38;;;1.68;64.82
61113;BME280;47184;57.998;56.184;2023-03-20T14:39:10;100650.28;;;1.64;65.54
61113;BME280;47184;57.998;56.184;2023-03-20T14:48:10;100636.25;;;1.20;67.88
61113;BME280;47184;57.998;56.184;2023-03-20T14:50:53;100636.09;;;1.23;68.07
61113;BME280;47184;57.998;56.184;2023-03-20T14:53:24;100639.34;;;1.27;68.21
61113;BME280;47184;57.998;56.184;2023-03-20T14:56:06;100635.56;;;1.17;68.78
61113;BME280;47184;57.998;56.184;2023-03-20T15:01:13;100630.56;;;0.98;70.04
61113;BME280;47184;57.998;56.184;2023-03-20T15:03:41;100619.31;;;0.82;70.93
61113;BME280;47184;57.998;56.184;2023-03-20T15:06:09;100630.47;;;0.84;71.18
61113;BME280;47184;57.998;56.184;2023-03-20T15:08:45;100634.00;;;0.83;71.06
61113;BME280;47184;57.998;56.184;2023-03-20T15:11:13;100632.91;;;0.87;71.17
61113;BME280;47184;57.998;56.184;2023-03-20T15:13:41;100624.09;;;0.89;71.61
61113;BME280;47184;57.998;56.184;2023-03-20T15:16:10;100611.84;;;0.91;71.08
61113;BME280;47184;57.998;56.184;2023-03-20T15:18:45;100604.22;;;0.88;70.82
61113;BME280;47184;57.998;56.184;2023-03-20T15:21:17;100607.91;;;0.84;71.35
61113;BME280;47184;57.998;56.184;2023-03-20T15:23:45;100609.09;;;0.79;72.58
61113;BME280;47184;57.998;56.184;2023-03-20T15:26:17;100612.84;;;0.73;72.50